createdAt,value
2019-04-03T00:01:47.764Z,3.28
2019-04-03T00:04:13.807Z,3.26
2019-04-03T00:06:39.760Z,3.23
2019-04-03T00:09:06.504Z,3.23
2019-04-03T00:11:33.237Z,3.24
2019-04-03T00:13:59.089Z,3.26
2019-04-03T00:16:25.005Z,3.27
2019-04-03T00:18:51.082Z,3.27
2019-04-03T00:21:17.754Z,3.27
2019-04-03T00:23:44.715Z,3.28
2019-04-03T00:26:10.653Z,3.27
2019-04-03T00:28:36.547Z,3.26
2019-04-03T00:31:02.494Z,3.26
2019-04-03T00:33:28.894Z,3.27
2019-04-03T00:35:54.757Z,3.28
2019-04-03T00:38:23.990Z,3.28
2019-04-03T00:40:50.115Z,3.28
2019-04-03T00:43:16.101Z,3.27
2019-04-03T00:45:41.942Z,3.26
2019-04-03T00:48:07.974Z,3.25
2019-04-03T00:50:33.963Z,3.23
2019-04-03T00:52:59.839Z,3.21
2019-04-03T00:55:26.600Z,3.20
2019-04-03T00:57:52.928Z,3.19
2019-04-03T01:00:18.881Z,3.17
2019-04-03T01:02:44.963Z,3.17
2019-04-03T01:05:11.329Z,3.18
2019-04-03T01:07:37.319Z,3.18
2019-04-03T01:10:04.083Z,3.19
2019-04-03T01:12:31.269Z,3.19
2019-04-03T01:14:57.445Z,3.19
2019-04-03T01:17:23.490Z,3.20
2019-04-03T01:19:49.369Z,3.18
2019-04-03T01:22:15.235Z,3.17
2019-04-03T01:24:41.396Z,3.16
2019-04-03T01:27:07.246Z,3.17
2019-04-03T01:29:33.135Z,3.17
2019-04-03T01:31:59.299Z,3.19
2019-04-03T01:34:25.403Z,3.20
2019-04-03T01:36:51.316Z,3.19
2019-04-03T01:39:17.391Z,3.18
2019-04-03T01:41:43.274Z,3.00
2019-04-03T01:44:09.147Z,3.15
2019-04-03T01:46:35.125Z,3.17
2019-04-03T01:49:00.986Z,3.17
2019-04-03T01:51:27.733Z,3.18
2019-04-03T01:53:54.832Z,3.17
2019-04-03T01:56:20.672Z,3.17
2019-04-03T01:58:46.646Z,3.18
2019-04-03T02:01:12.697Z,3.20
2019-04-03T02:03:41.359Z,3.22
2019-04-03T02:06:06.484Z,3.23
2019-04-03T02:08:32.512Z,3.22
2019-04-03T02:10:58.518Z,3.23
2019-04-03T02:13:24.677Z,3.21
2019-04-03T02:15:52.158Z,3.21
2019-04-03T02:18:18.365Z,3.20
2019-04-03T02:20:44.571Z,3.19
2019-04-03T02:23:10.711Z,3.16
2019-04-03T02:25:36.598Z,3.16
2019-04-03T02:28:03.857Z,3.13
2019-04-03T02:30:30.382Z,3.13
2019-04-03T02:32:57.335Z,3.10
2019-04-03T02:35:23.350Z,3.07
2019-04-03T02:37:50.697Z,3.07
2019-04-03T02:40:17.162Z,3.06
2019-04-03T02:42:43.300Z,3.07
2019-04-03T02:45:09.568Z,3.06
2019-04-03T02:47:35.438Z,3.07
2019-04-03T02:50:01.636Z,3.07
2019-04-03T02:52:27.788Z,3.05
2019-04-03T02:54:53.975Z,3.05
2019-04-03T02:57:19.923Z,3.04
2019-04-03T02:59:45.922Z,3.03
2019-04-03T03:02:13.047Z,3.04
2019-04-03T03:04:39.564Z,3.03
2019-04-03T03:07:05.785Z,3.02
2019-04-03T03:09:31.796Z,3.03
2019-04-03T03:11:58.023Z,3.02
2019-04-03T03:14:24.201Z,3.01
2019-04-03T03:16:51.114Z,3.02
2019-04-03T03:19:17.376Z,3.02
2019-04-03T03:21:44.808Z,2.99
2019-04-03T03:24:12.223Z,2.96
2019-04-03T03:26:38.368Z,2.95
2019-04-03T03:29:16.174Z,2.95
2019-04-03T03:31:59.627Z,2.92
2019-04-03T03:34:02.993Z,2.91
2019-04-03T03:36:28.440Z,2.90
2019-04-03T03:38:54.479Z,2.90
2019-04-03T03:41:23.248Z,2.88
2019-04-03T03:43:48.464Z,2.89
2019-04-03T03:46:14.495Z,2.88
2019-04-03T03:48:43.926Z,2.87
2019-04-03T03:51:08.720Z,2.87
2019-04-03T03:53:35.567Z,2.86
2019-04-03T03:56:01.867Z,2.84
2019-04-03T03:58:28.165Z,2.82
2019-04-03T04:00:58.275Z,2.83
2019-04-03T04:03:21.923Z,2.84
2019-04-03T04:05:47.980Z,2.83
2019-04-03T04:08:14.066Z,2.81
2019-04-03T04:10:41.157Z,2.83
2019-04-03T04:13:07.276Z,2.83
2019-04-03T04:15:33.302Z,2.82
2019-04-03T04:17:59.370Z,2.82
2019-04-03T04:20:26.699Z,2.83
2019-04-03T04:22:53.165Z,2.82
2019-04-03T04:25:19.892Z,2.79
2019-04-03T04:27:46.041Z,2.79
2019-04-03T04:30:13.815Z,2.79
2019-04-03T04:32:39.788Z,2.76
2019-04-03T04:35:05.777Z,2.76
2019-04-03T04:37:31.721Z,2.77
2019-04-03T04:39:59.580Z,2.76
2019-04-03T04:42:25.716Z,2.75
2019-04-03T04:44:51.671Z,2.76
2019-04-03T04:47:17.512Z,2.76
2019-04-03T04:49:43.477Z,2.76
2019-04-03T04:52:09.347Z,2.77
2019-04-03T04:54:35.377Z,2.77
2019-04-03T04:57:01.375Z,2.78
2019-04-03T04:59:27.232Z,2.78
2019-04-03T05:01:53.102Z,2.79
2019-04-03T05:04:19.362Z,2.78
2019-04-03T05:06:45.232Z,2.79
2019-04-03T05:09:11.150Z,2.81
2019-04-03T05:11:39.131Z,2.84
2019-04-03T05:14:04.857Z,2.86
2019-04-03T05:16:30.837Z,2.89
2019-04-03T05:19:09.017Z,2.93
2019-04-03T05:21:25.783Z,2.94
2019-04-03T05:23:51.899Z,2.95
2019-04-03T05:26:20.979Z,2.95
2019-04-03T05:28:55.762Z,2.95
2019-04-03T05:31:13.845Z,2.97
2019-04-03T05:33:42.201Z,2.97
2019-04-03T05:36:07.657Z,2.99
2019-04-03T05:38:33.531Z,3.01
2019-04-03T05:40:59.480Z,3.02
2019-04-03T05:43:25.351Z,3.04
2019-04-03T05:45:51.240Z,3.06
2019-04-03T05:48:18.250Z,3.07
2019-04-03T05:50:44.368Z,3.07
2019-04-03T05:53:10.351Z,3.10
2019-04-03T05:55:36.421Z,3.14
2019-04-03T05:58:02.490Z,3.16
2019-04-03T06:00:28.351Z,3.20
2019-04-03T06:02:57.051Z,3.20
2019-04-03T06:05:22.209Z,3.22
2019-04-03T06:07:49.375Z,3.23
2019-04-03T06:10:15.839Z,3.27
2019-04-03T06:12:44.788Z,3.29
2019-04-03T06:15:10.324Z,3.32
2019-04-03T06:17:36.866Z,3.36
2019-04-03T06:20:05.897Z,3.41
2019-04-03T06:22:31.736Z,3.45
2019-04-03T06:24:57.741Z,3.49
2019-04-03T06:27:23.601Z,3.52
2019-04-03T06:29:50.706Z,3.54
2019-04-03T06:32:17.590Z,3.58
2019-04-03T06:34:43.815Z,3.63
2019-04-03T06:37:09.752Z,3.63
2019-04-03T06:39:35.739Z,3.66
2019-04-03T06:42:01.589Z,3.67
2019-04-03T06:44:27.440Z,3.70
2019-04-03T06:46:54.762Z,3.71
2019-04-03T06:49:20.945Z,3.75
2019-04-03T06:51:48.904Z,3.79
2019-04-03T06:54:14.811Z,3.82
2019-04-03T06:56:41.299Z,3.84
2019-04-03T06:59:07.275Z,3.88
2019-04-03T07:01:33.471Z,3.90
2019-04-03T07:03:59.359Z,3.92
2019-04-03T07:06:25.211Z,3.93
2019-04-03T07:08:51.306Z,3.94
2019-04-03T07:11:23.205Z,3.97
2019-04-03T07:13:44.995Z,3.99
2019-04-03T07:16:11.044Z,4.01
2019-04-03T07:18:37.465Z,4.06
2019-04-03T07:21:03.365Z,4.09
2019-04-03T07:23:30.216Z,4.14
2019-04-03T07:25:56.138Z,4.16
2019-04-03T07:28:22.110Z,4.21
2019-04-03T07:30:48.193Z,4.23
2019-04-03T07:33:14.161Z,4.26
2019-04-03T07:35:40.652Z,4.31
2019-04-03T07:38:07.009Z,4.30
2019-04-03T07:40:32.892Z,4.30
2019-04-03T07:42:58.873Z,4.31
2019-04-03T07:45:24.988Z,4.34
2019-04-03T07:47:51.305Z,4.38
2019-04-03T07:50:17.739Z,4.43
2019-04-03T07:52:43.876Z,4.48
2019-04-03T07:55:09.982Z,4.50
2019-04-03T07:57:36.993Z,4.55
2019-04-03T08:00:07.039Z,4.59
2019-04-03T08:02:33.918Z,4.61
2019-04-03T08:05:00.865Z,4.63
2019-04-03T08:07:26.972Z,4.65
2019-04-03T08:09:53.182Z,4.70
2019-04-03T08:12:19.045Z,4.74
2019-04-03T08:14:45.128Z,4.79
2019-04-03T08:17:11.198Z,4.83
2019-04-03T08:19:37.205Z,4.88
2019-04-03T08:22:03.297Z,4.93
2019-04-03T08:24:29.168Z,4.95
2019-04-03T08:26:55.023Z,4.96
2019-04-03T08:29:21.203Z,4.98
2019-04-03T08:31:48.442Z,5.01
2019-04-03T08:34:18.178Z,5.03
2019-04-03T08:36:42.816Z,5.04
2019-04-03T08:39:09.151Z,5.07
2019-04-03T08:41:36.930Z,5.12
2019-04-03T08:44:07.257Z,5.16
2019-04-03T08:46:31.419Z,5.20
2019-04-03T08:48:57.279Z,5.25
2019-04-03T08:51:23.279Z,5.27
2019-04-03T08:53:49.159Z,5.29
2019-04-03T08:56:16.883Z,5.31
2019-04-03T08:58:45.840Z,5.32
2019-04-03T09:01:11.252Z,5.34
2019-04-03T09:03:37.521Z,5.36
2019-04-03T09:06:03.531Z,5.35
2019-04-03T09:08:29.405Z,5.12
2019-04-03T09:10:55.373Z,5.43
2019-04-03T09:13:23.233Z,5.48
2019-04-03T09:15:49.053Z,5.52
2019-04-03T09:18:15.124Z,5.59
2019-04-03T09:20:43.408Z,5.64
2019-04-03T09:23:08.984Z,5.72
2019-04-03T09:25:37.098Z,5.80
2019-04-03T09:28:03.234Z,5.85
2019-04-03T09:30:29.535Z,5.88
2019-04-03T09:32:55.572Z,5.97
2019-04-03T09:35:21.685Z,6.07
2019-04-03T09:37:47.795Z,6.14
2019-04-03T09:40:16.482Z,6.23
2019-04-03T09:42:41.668Z,6.36
2019-04-03T09:45:07.620Z,6.50
2019-04-03T09:47:34.724Z,6.60
2019-04-03T09:50:01.047Z,6.67
2019-04-03T09:52:37.980Z,6.76
2019-04-03T09:54:54.602Z,6.89
2019-04-03T09:57:20.622Z,6.99
2019-04-03T09:59:46.527Z,7.08
2019-04-03T10:02:12.430Z,7.16
2019-04-03T10:04:38.716Z,7.21
2019-04-03T10:07:04.633Z,7.27
2019-04-03T10:09:30.574Z,7.35
2019-04-03T10:11:56.539Z,7.38
2019-04-03T10:14:22.429Z,7.42
2019-04-03T10:16:48.619Z,7.50
2019-04-03T10:19:14.764Z,7.51
2019-04-03T10:21:41.028Z,7.50
2019-04-03T10:24:07.057Z,7.47
2019-04-03T10:26:33.010Z,7.49
2019-04-03T10:28:59.192Z,7.51
2019-04-03T10:31:25.209Z,7.56
2019-04-03T10:33:51.267Z,7.62
2019-04-03T10:36:18.156Z,7.72
2019-04-03T10:38:44.389Z,7.77
2019-04-03T10:41:11.114Z,7.77
2019-04-03T10:43:37.714Z,7.77
2019-04-03T10:46:04.003Z,7.81
2019-04-03T10:48:30.149Z,7.85
2019-04-03T10:50:56.306Z,7.87
2019-04-03T10:53:22.270Z,7.87
2019-04-03T10:55:48.391Z,7.92
2019-04-03T10:58:14.553Z,7.92
2019-04-03T11:00:40.620Z,7.92
2019-04-03T11:03:06.573Z,7.91
2019-04-03T11:05:32.624Z,7.91
2019-04-03T11:07:58.490Z,7.91
2019-04-03T11:10:25.294Z,7.96
2019-04-03T11:12:51.921Z,8.03
2019-04-03T11:15:18.228Z,8.12
2019-04-03T11:17:44.279Z,8.21
2019-04-03T11:20:11.086Z,8.33
2019-04-03T11:22:40.394Z,8.47
2019-04-03T11:25:09.066Z,8.56
2019-04-03T11:27:41.801Z,8.67
2019-04-03T11:30:04.193Z,8.78
2019-04-03T11:32:30.397Z,8.91
2019-04-03T11:34:56.613Z,8.99
2019-04-03T11:37:22.488Z,9.05
2019-04-03T11:40:00.775Z,9.09
2019-04-03T11:42:23.841Z,9.12
2019-04-03T11:44:43.897Z,9.13
2019-04-03T11:47:10.888Z,9.13
2019-04-03T11:49:37.946Z,9.15
2019-04-03T11:52:04.166Z,9.16
2019-04-03T11:54:30.181Z,9.19
2019-04-03T11:56:57.105Z,9.24
2019-04-03T11:59:23.997Z,9.26
2019-04-03T12:01:51.122Z,9.19
2019-04-03T12:04:17.050Z,9.21
2019-04-03T12:06:43.137Z,9.24
2019-04-03T12:09:09.423Z,9.23
2019-04-03T12:11:35.995Z,9.22
2019-04-03T12:14:03.142Z,9.25
2019-04-03T12:16:29.178Z,9.29
2019-04-03T12:18:55.059Z,9.38
2019-04-03T12:21:21.267Z,9.43
2019-04-03T12:23:47.348Z,9.45
2019-04-03T12:26:13.177Z,9.52
2019-04-03T12:28:39.029Z,9.65
2019-04-03T12:31:05.082Z,9.74
2019-04-03T12:33:31.178Z,9.81
2019-04-03T12:35:57.451Z,9.83
2019-04-03T12:38:23.881Z,9.82
2019-04-03T12:40:50.262Z,9.89
2019-04-03T12:43:16.559Z,9.93
2019-04-03T12:45:42.513Z,9.97
2019-04-03T12:48:08.382Z,9.91
2019-04-03T12:50:34.559Z,9.87
2019-04-03T12:53:00.694Z,9.89
2019-04-03T12:55:26.938Z,9.97
2019-04-03T12:57:52.908Z,10.06
2019-04-03T13:00:19.375Z,10.14
2019-04-03T13:02:45.251Z,10.18
2019-04-03T13:05:12.069Z,10.24
2019-04-03T13:07:38.205Z,10.31
2019-04-03T13:10:06.986Z,10.37
2019-04-03T13:12:33.772Z,10.34
2019-04-03T13:14:59.749Z,10.25
2019-04-03T13:17:25.849Z,10.26
2019-04-03T13:19:51.912Z,10.20
2019-04-03T13:22:18.808Z,10.09
2019-04-03T13:24:46.181Z,10.02
2019-04-03T13:27:12.448Z,9.94
2019-04-03T13:29:40.311Z,9.81
2019-04-03T13:32:06.261Z,9.76
2019-04-03T13:34:32.638Z,9.71
2019-04-03T13:36:58.917Z,9.57
2019-04-03T13:39:24.791Z,9.47
2019-04-03T13:41:50.647Z,9.39
2019-04-03T13:44:16.743Z,9.26
2019-04-03T13:46:42.558Z,9.14
2019-04-03T13:49:08.431Z,9.06
2019-04-03T13:51:34.395Z,9.03
2019-04-03T13:54:00.997Z,9.04
2019-04-03T13:56:27.244Z,9.06
2019-04-03T13:58:54.364Z,9.02
2019-04-03T14:01:20.698Z,8.99
2019-04-03T14:03:49.687Z,8.93
2019-04-03T14:06:14.451Z,8.89
2019-04-03T14:08:40.451Z,8.84
2019-04-03T14:11:06.316Z,8.78
2019-04-03T14:13:32.376Z,8.67
2019-04-03T14:15:58.326Z,8.52
2019-04-03T14:18:24.190Z,8.47
2019-04-03T14:20:51.987Z,8.44
2019-04-03T14:23:18.055Z,8.28
2019-04-03T14:25:44.253Z,8.15
2019-04-03T14:28:10.600Z,8.07
2019-04-03T14:30:36.602Z,7.97
2019-04-03T14:33:02.581Z,7.88
2019-04-03T14:35:49.979Z,7.80
2019-04-03T14:37:59.466Z,7.67
2019-04-03T14:40:24.026Z,7.57
2019-04-03T14:42:50.048Z,7.49
2019-04-03T14:45:16.027Z,7.44
2019-04-03T14:47:42.185Z,7.39
2019-04-03T14:50:08.302Z,7.27
2019-04-03T14:52:34.134Z,7.20
2019-04-03T14:55:14.818Z,7.16
2019-04-03T14:57:28.032Z,7.13
2019-04-03T14:59:53.904Z,7.11
2019-04-03T15:02:21.413Z,7.09
2019-04-03T15:04:47.533Z,7.03
2019-04-03T15:07:13.466Z,6.97
2019-04-03T15:09:39.326Z,6.88
2019-04-03T15:12:06.628Z,6.78
2019-04-03T15:14:33.073Z,6.70
2019-04-03T15:16:59.026Z,6.65
2019-04-03T15:19:25.082Z,6.61
2019-04-03T15:21:51.290Z,6.55
2019-04-03T15:24:17.462Z,6.49
2019-04-03T15:26:43.396Z,6.47
2019-04-03T15:29:09.470Z,6.46
2019-04-03T15:31:35.907Z,6.37
2019-04-03T15:34:01.937Z,6.50
2019-04-03T15:36:27.802Z,6.45
2019-04-03T15:38:53.784Z,6.51
2019-04-03T15:41:19.772Z,6.60
2019-04-03T15:43:47.169Z,6.65
2019-04-03T15:46:13.370Z,6.68
2019-04-03T15:48:40.868Z,6.67
2019-04-03T15:51:08.721Z,6.70
2019-04-03T15:53:34.950Z,6.76
2019-04-03T15:56:01.313Z,6.80
2019-04-03T15:58:27.341Z,6.78
2019-04-03T16:00:53.623Z,6.76
2019-04-03T16:03:19.673Z,6.74
2019-04-03T16:05:45.571Z,6.70
2019-04-03T16:08:12.409Z,6.69
2019-04-03T16:10:39.419Z,6.67
2019-04-03T16:13:05.571Z,6.62
2019-04-03T16:15:31.477Z,6.60
2019-04-03T16:17:57.709Z,6.57
2019-04-03T16:20:23.516Z,6.56
2019-04-03T16:22:49.379Z,6.52
2019-04-03T16:25:16.748Z,6.44
2019-04-03T16:27:43.104Z,6.39
2019-04-03T16:30:09.708Z,6.34
2019-04-03T16:32:36.594Z,6.27
2019-04-03T16:35:03.829Z,6.19
2019-04-03T16:37:29.989Z,6.18
2019-04-03T16:39:56.015Z,6.17
2019-04-03T16:42:21.985Z,6.16
2019-04-03T16:44:48.143Z,6.13
2019-04-03T16:47:14.476Z,6.11
2019-04-03T16:49:40.443Z,6.06
2019-04-03T16:52:06.342Z,6.04
2019-04-03T16:54:33.617Z,5.99
2019-04-03T16:57:00.415Z,5.96
2019-04-03T16:59:27.185Z,5.92
2019-04-03T17:01:53.294Z,5.89
2019-04-03T17:04:26.848Z,5.85
2019-04-03T17:06:48.748Z,5.83
2019-04-03T17:09:15.974Z,5.81
2019-04-03T17:11:44.914Z,5.76
2019-04-03T17:14:09.539Z,5.75
2019-04-03T17:16:37.086Z,5.71
2019-04-03T17:19:03.690Z,5.64
2019-04-03T17:21:36.970Z,5.60
2019-04-03T17:23:58.023Z,5.56
2019-04-03T17:26:23.866Z,5.52
2019-04-03T17:29:01.906Z,5.52
2019-04-03T17:31:17.906Z,5.47
2019-04-03T17:33:43.837Z,5.41
2019-04-03T17:36:09.642Z,5.38
2019-04-03T17:38:35.596Z,5.38
2019-04-03T17:41:01.426Z,5.38
2019-04-03T17:43:27.317Z,5.37
2019-04-03T17:45:53.475Z,5.35
2019-04-03T17:48:19.326Z,5.32
2019-04-03T17:50:45.222Z,5.31
2019-04-03T17:53:11.271Z,5.25
2019-04-03T17:55:41.277Z,5.17
2019-04-03T17:58:06.737Z,5.15
2019-04-03T18:00:32.975Z,5.13
2019-04-03T18:02:58.826Z,5.13
2019-04-03T18:05:25.633Z,5.13
2019-04-03T18:07:52.214Z,5.13
2019-04-03T18:10:18.172Z,5.13
2019-04-03T18:12:46.154Z,5.08
2019-04-03T18:15:12.159Z,5.07
2019-04-03T18:17:38.113Z,5.08
2019-04-03T18:20:05.299Z,5.07
2019-04-03T18:22:31.361Z,5.08
2019-04-03T18:24:57.203Z,5.08
2019-04-03T18:27:23.142Z,5.00
2019-04-03T18:29:49.223Z,4.94
2019-04-03T18:32:15.390Z,4.91
2019-04-03T18:34:41.738Z,4.92
2019-04-03T18:37:07.703Z,4.90
2019-04-03T18:39:33.560Z,4.89
2019-04-03T18:41:59.455Z,4.89
2019-04-03T18:44:26.882Z,4.90
2019-04-03T18:46:53.092Z,4.88
2019-04-03T18:49:18.966Z,4.87
2019-04-03T18:51:45.035Z,4.71
2019-04-03T18:54:11.648Z,4.89
2019-04-03T18:56:37.979Z,4.86
2019-04-03T18:59:04.120Z,4.67
2019-04-03T19:01:32.342Z,4.79
2019-04-03T19:03:57.686Z,4.78
2019-04-03T19:06:23.786Z,4.77
2019-04-03T19:08:50.002Z,4.75
2019-04-03T19:11:18.957Z,4.74
2019-04-03T19:13:47.639Z,4.72
2019-04-03T19:16:15.440Z,4.70
2019-04-03T19:18:40.441Z,4.66
2019-04-03T19:21:06.408Z,4.62
2019-04-03T19:23:32.281Z,4.59
2019-04-03T19:26:00.003Z,4.55
2019-04-03T19:28:25.988Z,4.52
2019-04-03T19:30:51.970Z,4.47
2019-04-03T19:33:17.809Z,4.44
2019-04-03T19:35:43.855Z,4.43
2019-04-03T19:38:09.716Z,4.41
2019-04-03T19:40:35.902Z,4.38
2019-04-03T19:43:01.878Z,4.36
2019-04-03T19:45:27.735Z,4.34
2019-04-03T19:47:54.932Z,4.30
2019-04-03T19:50:21.432Z,4.28
2019-04-03T19:52:47.476Z,4.25
2019-04-03T19:55:14.768Z,4.23
2019-04-03T19:57:40.917Z,4.19
2019-04-03T20:00:07.886Z,4.15
2019-04-03T20:02:33.855Z,4.12
2019-04-03T20:04:59.905Z,4.11
2019-04-03T20:07:26.799Z,4.07
2019-04-03T20:09:53.248Z,4.05
2019-04-03T20:12:19.354Z,4.03
2019-04-03T20:14:57.464Z,4.02
2019-04-03T20:17:12.965Z,4.03
2019-04-03T20:19:39.096Z,4.04
2019-04-03T20:22:06.609Z,4.05
2019-04-03T20:24:32.762Z,4.06
2019-04-03T20:26:58.990Z,4.04
2019-04-03T20:29:27.436Z,4.03
2019-04-03T20:31:52.543Z,4.00
2019-04-03T20:34:18.542Z,3.97
2019-04-03T20:36:44.376Z,3.95
2019-04-03T20:39:10.244Z,3.92
2019-04-03T20:41:36.327Z,3.89
2019-04-03T20:44:02.280Z,3.90
2019-04-03T20:46:28.142Z,3.87
2019-04-03T20:48:54.163Z,3.85
2019-04-03T20:51:21.412Z,3.85
2019-04-03T20:53:48.168Z,3.84
2019-04-03T20:56:15.497Z,3.84
2019-04-03T20:58:41.361Z,3.85
2019-04-03T21:01:07.766Z,3.84
2019-04-03T21:03:33.793Z,3.83
2019-04-03T21:05:59.747Z,3.79
2019-04-03T21:08:26.704Z,3.79
2019-04-03T21:10:53.164Z,3.79
2019-04-03T21:13:19.012Z,3.79
2019-04-03T21:15:45.597Z,3.79
2019-04-03T21:18:12.021Z,3.79
2019-04-03T21:20:37.934Z,3.80
2019-04-03T21:23:03.936Z,3.80
2019-04-03T21:25:30.052Z,3.78
2019-04-03T21:27:55.927Z,3.76
2019-04-03T21:30:23.715Z,3.77
2019-04-03T21:32:49.751Z,3.76
2019-04-03T21:35:15.635Z,3.77
2019-04-03T21:37:41.521Z,3.77
2019-04-03T21:40:07.649Z,3.75
2019-04-03T21:42:33.593Z,3.73
2019-04-03T21:45:02.345Z,3.69
2019-04-03T21:47:27.232Z,3.67
2019-04-03T21:49:53.092Z,3.64
2019-04-03T21:52:19.051Z,3.63
2019-04-03T21:54:45.102Z,3.63
2019-04-03T21:57:10.972Z,3.62
2019-04-03T21:59:36.894Z,3.61
2019-04-03T22:02:03.406Z,3.63
2019-04-03T22:04:29.264Z,3.64
2019-04-03T22:06:57.599Z,3.64
2019-04-03T22:09:22.981Z,3.65
2019-04-03T22:11:48.839Z,3.68
2019-04-03T22:14:15.027Z,3.68
2019-04-03T22:16:40.972Z,3.69
2019-04-03T22:19:06.913Z,3.69
2019-04-03T22:21:33.043Z,3.70
2019-04-03T22:23:59.050Z,3.71
2019-04-03T22:26:25.004Z,3.72
2019-04-03T22:28:50.974Z,3.70
2019-04-03T22:31:16.985Z,3.70
2019-04-03T22:33:42.864Z,3.70
2019-04-03T22:36:08.730Z,3.68
2019-04-03T22:38:36.866Z,3.69
2019-04-03T22:41:02.493Z,3.72
2019-04-03T22:43:28.371Z,3.74
2019-04-03T22:45:54.453Z,3.76
2019-04-03T22:48:20.395Z,3.78
2019-04-03T22:50:46.286Z,3.78
2019-04-03T22:53:12.220Z,3.80
2019-04-03T22:55:38.078Z,3.81
2019-04-03T22:58:03.967Z,3.81
2019-04-03T23:00:29.927Z,3.82
2019-04-03T23:02:55.900Z,3.84
2019-04-03T23:05:21.888Z,3.82
2019-04-03T23:07:47.905Z,3.82
2019-04-03T23:10:13.760Z,3.82
2019-04-03T23:12:39.638Z,3.83
2019-04-03T23:15:08.709Z,3.84
2019-04-03T23:17:33.417Z,3.85
2019-04-03T23:19:59.332Z,3.84
2019-04-03T23:22:25.908Z,3.86
2019-04-03T23:24:52.434Z,3.87
2019-04-03T23:27:18.326Z,3.90
2019-04-03T23:29:44.329Z,3.90
2019-04-03T23:32:10.185Z,3.92
2019-04-03T23:34:36.027Z,3.91
2019-04-03T23:37:01.944Z,3.92
2019-04-03T23:39:28.398Z,3.92
2019-04-03T23:41:54.283Z,3.92
2019-04-03T23:44:20.320Z,3.93
2019-04-03T23:46:46.369Z,3.95
2019-04-03T23:49:12.239Z,3.97
2019-04-03T23:51:38.277Z,3.97
2019-04-03T23:54:04.151Z,3.99
2019-04-03T23:56:30.189Z,3.97
2019-04-03T23:58:56.282Z,3.97
